Time;durP1;ratioP1;P1;durP2;ratioP2;P2;SDS_P1;SDS_P2;PMS_P1;PMS_P2;Temp;Humidity;BMP_temperature;BMP_pressure;BME280_temperature;BME280_humidity;BME280_pressure;Samples;Min_cycle;Max_cycle;Signal;HPM_P1;HPM_P2
2022/10/13 00:01:32;;;;;;;;;;;;;;;;;;5004651;28;19917;-31
2022/10/13 00:03:57;;;;;;;;;;;;;;;;;;5004247;28;19921;-31
2022/10/13 00:06:22;;;;;;;;;;;;;;;;;;5002422;28;20004;-32
2022/10/13 00:08:47;;;;;;;;;;;;;;;;;;5005430;28;19936;-31
2022/10/13 00:11:12;;;;;;;;;;;;;;;;;;5003287;28;20411;-32
2022/10/13 00:13:37;;;;;;;;;;;;;;;;;;5009001;28;19913;-31
2022/10/13 00:16:03;;;;;;;;;;;;;;;;;;5009601;28;20314;-32
2022/10/13 00:18:28;;;;;;;;;;;;;;;;;;5006543;28;19913;-31
2022/10/13 00:20:53;;;;;;;;;;;;;;;;;;5008490;28;20409;-31
2022/10/13 00:23:18;;;;;;;;;;;;;;;;;;5008111;28;19918;-31
2022/10/13 00:25:43;;;;;;;;;;;;;;;;;;5008200;28;19921;-31
2022/10/13 00:28:08;;;;;;;;;;;;;;;;;;5003928;28;19913;-31
2022/10/13 00:30:34;;;;;;;;;;;;;;;;;;5007693;28;19922;-31
2022/10/13 00:32:59;;;;;;;;;;;;;;;;;;5008927;28;19992;-31
2022/10/13 00:35:24;;;;;;;;;;;;;;;;;;5008469;28;20314;-31
2022/10/13 00:37:49;;;;;;;;;;;;;;;;;;5008079;28;19940;-31
2022/10/13 00:40:14;;;;;;;;;;;;;;;;;;5008236;28;19932;-32
2022/10/13 00:42:39;;;;;;;;;;;;;;;;;;5009451;28;20402;-31
2022/10/13 00:45:05;;;;;;;;;;;;;;;;;;5008699;28;19924;-31
2022/10/13 00:47:30;;;;;;;;;;;;;;;;;;5007612;28;20012;-31
2022/10/13 00:49:55;;;;;;;;;;;;;;;;;;5007281;28;20013;-32
2022/10/13 00:52:20;;;;;;;;;;;;;;;;;;5009749;28;19914;-32
2022/10/13 00:54:45;;;;;;;;;;;;;;;;;;5008374;28;19918;-32
2022/10/13 00:57:10;;;;;;;;;;;;;;;;;;5006850;28;19913;-31
2022/10/13 00:59:36;;;;;;;;;;;;;;;;;;5008663;28;19921;-32
2022/10/13 01:02:01;;;;;;;;;;;;;;;;;;5008131;28;19921;-31
2022/10/13 01:04:26;;;;;;;;;;;;;;;;;;5005452;28;19913;-31
2022/10/13 01:06:51;;;;;;;;;;;;;;;;;;5005047;28;20359;-31
2022/10/13 01:09:17;;;;;;;;;;;;;;;;;;5008396;28;19921;-31
2022/10/13 01:11:42;;;;;;;;;;;;;;;;;;5005501;28;20276;-32
2022/10/13 01:14:07;;;;;;;;;;;;;;;;;;5004826;28;19917;-31
2022/10/13 01:16:32;;;;;;;;;;;;;;;;;;5006464;28;20156;-32
2022/10/13 01:18:57;;;;;;;;;;;;;;;;;;5007034;28;20008;-32
2022/10/13 01:21:22;;;;;;;;;;;;;;;;;;5008484;28;19925;-31
2022/10/13 01:23:48;;;;;;;;;;;;;;;;;;5006184;28;19913;-31
2022/10/13 01:26:13;;;;;;;;;;;;;;;;;;5006138;28;19956;-31
2022/10/13 01:28:38;;;;;;;;;;;;;;;;;;5008113;28;19971;-31
2022/10/13 01:31:03;;;;;;;;;;;;;;;;;;5007970;28;19920;-31
2022/10/13 01:33:28;;;;;;;;;;;;;;;;;;5005754;28;19913;-31
2022/10/13 01:35:53;;;;;;;;;;;;;;;;;;5004271;28;19925;-32
2022/10/13 01:38:19;;;;;;;;;;;;;;;;;;5007274;28;20490;-31
2022/10/13 01:40:44;;;;;;;;;;;;;;;;;;5008033;28;19917;-31
2022/10/13 01:43:09;;;;;;;;;;;;;;;;;;5006077;28;19971;-32
2022/10/13 01:45:34;;;;;;;;;;;;;;;;;;5004801;28;19925;-32
2022/10/13 01:47:59;;;;;;;;;;;;;;;;;;5006961;28;20279;-31
2022/10/13 01:50:24;;;;;;;;;;;;;;;;;;5006806;28;20161;-31
2022/10/13 01:52:50;;;;;;;;;;;;;;;;;;5007025;28;19968;-31
2022/10/13 01:55:15;;;;;;;;;;;;;;;;;;5006243;28;19960;-31
2022/10/13 01:57:40;;;;;;;;;;;;;;;;;;5003506;28;20437;-31
2022/10/13 02:00:05;;;;;;;;;;;;;;;;;;5006737;28;19927;-31
2022/10/13 02:02:30;;;;;;;;;;;;;;;;;;5004829;28;19948;-29
2022/10/13 02:04:56;;;;;;;;;;;;;;;;;;5006302;28;19996;-29
2022/10/13 02:07:21;;;;;;;;;;;;;;;;;;5005579;28;19971;-29
2022/10/13 02:09:46;;;;;;;;;;;;;;;;;;5005349;28;19913;-29
2022/10/13 02:12:11;;;;;;;;;;;;;;;;;;5007281;28;19936;-29
2022/10/13 02:14:36;;;;;;;;;;;;;;;;;;5005374;28;20218;-29
2022/10/13 02:17:02;;;;;;;;;;;;;;;;;;5007050;28;19920;-29
2022/10/13 02:19:27;;;;;;;;;;;;;;;;;;5003512;28;20290;-29
2022/10/13 02:21:52;;;;;;;;;;;;;;;;;;5006128;28;20276;-29
2022/10/13 02:24:17;;;;;;;;;;;;;;;;;;5003701;28;19917;-29
2022/10/13 02:26:42;;;;;;;;;;;;;;;;;;5005805;28;19914;-28
2022/10/13 02:29:08;;;;;;;;;;;;;;;;;;5006850;28;19914;-28
2022/10/13 02:31:33;;;;;;;;;;;;;;;;;;5003759;28;19921;-29
2022/10/13 02:33:58;;;;;;;;;;;;;;;;;;5004584;28;20382;-28
2022/10/13 02:36:24;;;;;;;;;;;;;;;;;;5006041;28;19925;-28
2022/10/13 02:38:49;;;;;;;;;;;;;;;;;;5007198;28;19920;-29
2022/10/13 02:41:14;;;;;;;;;;;;;;;;;;5005244;28;20536;-29
2022/10/13 02:43:39;;;;;;;;;;;;;;;;;;5003575;28;19918;-29
2022/10/13 02:46:04;;;;;;;;;;;;;;;;;;5005197;28;20374;-28
2022/10/13 02:48:29;;;;;;;;;;;;;;;;;;5006379;28;19921;-28
2022/10/13 02:50:55;;;;;;;;;;;;;;;;;;5005897;28;19953;-29
2022/10/13 02:53:20;;;;;;;;;;;;;;;;;;5003373;28;20207;-28
2022/10/13 02:55:45;;;;;;;;;;;;;;;;;;5005368;28;19917;-28
2022/10/13 02:58:10;;;;;;;;;;;;;;;;;;5003746;28;19921;-29
2022/10/13 03:00:38;;;;;;;;;;;;;;;;;;5004732;28;20306;-28
2022/10/13 03:03:03;;;;;;;;;;;;;;;;;;5003946;28;20154;-28
2022/10/13 03:05:28;;;;;;;;;;;;;;;;;;5005942;28;20011;-28
2022/10/13 03:07:53;;;;;;;;;;;;;;;;;;5006097;28;20419;-27
2022/10/13 03:10:19;;;;;;;;;;;;;;;;;;5004144;28;19928;-28
2022/10/13 03:12:44;;;;;;;;;;;;;;;;;;5006663;28;19921;-28
2022/10/13 03:15:09;;;;;;;;;;;;;;;;;;5002510;28;20393;-28
2022/10/13 03:17:34;;;;;;;;;;;;;;;;;;5005683;28;19918;-28
2022/10/13 03:20:00;;;;;;;;;;;;;;;;;;5003903;28;19924;-28
2022/10/13 03:22:25;;;;;;;;;;;;;;;;;;5006190;28;19935;-28
2022/10/13 03:24:50;;;;;;;;;;;;;;;;;;5004255;28;19944;-28
2022/10/13 03:27:15;;;;;;;;;;;;;;;;;;5003549;28;20024;-28
2022/10/13 03:29:41;;;;;;;;;;;;;;;;;;5006152;28;20008;-28
2022/10/13 03:32:06;;;;;;;;;;;;;;;;;;5004292;28;20011;-28
2022/10/13 03:34:31;;;;;;;;;;;;;;;;;;5005575;28;20016;-28
2022/10/13 03:36:56;;;;;;;;;;;;;;;;;;5006628;28;20038;-29
2022/10/13 03:39:21;;;;;;;;;;;;;;;;;;5005525;28;19921;-28
2022/10/13 03:41:47;;;;;;;;;;;;;;;;;;5005076;28;19917;-29
2022/10/13 03:44:12;;;;;;;;;;;;;;;;;;5004425;28;20206;-28
2022/10/13 03:46:37;;;;;;;;;;;;;;;;;;5005920;28;19971;-28
2022/10/13 03:49:02;;;;;;;;;;;;;;;;;;5006105;28;19913;-29
2022/10/13 03:51:27;;;;;;;;;;;;;;;;;;5009443;28;19917;-28
2022/10/13 03:53:53;;;;;;;;;;;;;;;;;;5007368;28;19948;-28
2022/10/13 03:56:18;;;;;;;;;;;;;;;;;;5008310;28;19917;-27
2022/10/13 03:58:43;;;;;;;;;;;;;;;;;;5007169;28;20407;-28
2022/10/13 04:01:08;;;;;;;;;;;;;;;;;;5008801;28;20011;-28
2022/10/13 04:03:33;;;;;;;;;;;;;;;;;;5006245;28;19925;-28
2022/10/13 04:05:58;;;;;;;;;;;;;;;;;;5008800;28;19914;-28
2022/10/13 04:08:24;;;;;;;;;;;;;;;;;;5007085;28;19921;-29
2022/10/13 04:10:49;;;;;;;;;;;;;;;;;;5007741;28;19991;-28
2022/10/13 04:13:14;;;;;;;;;;;;;;;;;;5006574;28;20259;-28
2022/10/13 04:15:39;;;;;;;;;;;;;;;;;;5007448;28;19932;-28
2022/10/13 04:18:04;;;;;;;;;;;;;;;;;;5008554;28;20372;-28
2022/10/13 04:20:29;;;;;;;;;;;;;;;;;;5005744;28;19936;-28
2022/10/13 04:22:55;;;;;;;;;;;;;;;;;;5005116;28;19913;-28
2022/10/13 04:25:20;;;;;;;;;;;;;;;;;;5006695;28;19913;-28
2022/10/13 04:27:47;;;;;;;;;;;;;;;;;;5008645;28;20387;-28
2022/10/13 04:30:12;;;;;;;;;;;;;;;;;;5006919;28;19913;-28
2022/10/13 04:32:37;;;;;;;;;;;;;;;;;;5006206;28;19924;-28
2022/10/13 04:35:02;;;;;;;;;;;;;;;;;;5006563;28;19997;-28
2022/10/13 04:37:27;;;;;;;;;;;;;;;;;;5006028;28;19932;-28
2022/10/13 04:39:52;;;;;;;;;;;;;;;;;;5008887;28;19917;-28
2022/10/13 04:42:17;;;;;;;;;;;;;;;;;;5004815;28;20264;-28
2022/10/13 04:44:43;;;;;;;;;;;;;;;;;;5004561;28;19922;-28
2022/10/13 04:47:08;;;;;;;;;;;;;;;;;;5008142;28;20366;-28
2022/10/13 04:49:33;;;;;;;;;;;;;;;;;;5005000;28;20556;-29
2022/10/13 04:51:58;;;;;;;;;;;;;;;;;;5007728;28;20272;-28
2022/10/13 04:54:23;;;;;;;;;;;;;;;;;;5003081;28;20326;-28
2022/10/13 04:56:48;;;;;;;;;;;;;;;;;;5006982;28;19920;-28
2022/10/13 04:59:14;;;;;;;;;;;;;;;;;;5006075;28;19941;-29
2022/10/13 05:01:39;;;;;;;;;;;;;;;;;;5008895;28;19918;-28
2022/10/13 05:04:04;;;;;;;;;;;;;;;;;;5007244;28;20276;-29
2022/10/13 05:06:29;;;;;;;;;;;;;;;;;;5005713;28;20092;-28
2022/10/13 05:08:55;;;;;;;;;;;;;;;;;;5004174;28;19936;-28
2022/10/13 05:11:20;;;;;;;;;;;;;;;;;;5006035;28;19966;-29
2022/10/13 05:13:45;;;;;;;;;;;;;;;;;;5007531;28;19970;-28
2022/10/13 05:16:11;;;;;;;;;;;;;;;;;;5006694;28;19914;-29
2022/10/13 05:18:36;;;;;;;;;;;;;;;;;;5005639;28;19924;-28
2022/10/13 05:21:02;;;;;;;;;;;;;;;;;;5005054;28;19925;-28
2022/10/13 05:23:27;;;;;;;;;;;;;;;;;;5006403;28;20406;-28
2022/10/13 05:25:52;;;;;;;;;;;;;;;;;;5007159;28;19952;-28
2022/10/13 05:28:17;;;;;;;;;;;;;;;;;;5004478;28;20334;-28
2022/10/13 05:30:42;;;;;;;;;;;;;;;;;;5006460;28;19918;-29
2022/10/13 05:33:08;;;;;;;;;;;;;;;;;;5007520;28;19917;-28
2022/10/13 05:35:33;;;;;;;;;;;;;;;;;;5007517;28;20064;-28
2022/10/13 05:37:58;;;;;;;;;;;;;;;;;;5006900;28;19917;-28
2022/10/13 05:40:23;;;;;;;;;;;;;;;;;;5003681;28;19917;-29
2022/10/13 05:42:48;;;;;;;;;;;;;;;;;;5007887;28;20379;-28
2022/10/13 05:45:15;;;;;;;;;;;;;;;;;;5040871;23;20354;-28
2022/10/13 05:47:41;;;;;;;;;;;;;;;;;;5014905;28;19917;-30
2022/10/13 05:50:06;;;;;;;;;;;;;;;;;;5015576;28;19909;-31
2022/10/13 05:52:31;;;;;;;;;;;;;;;;;;5019605;28;19921;-31
2022/10/13 05:54:56;;;;;;;;;;;;;;;;;;5023916;28;19956;-31
2022/10/13 05:57:21;;;;;;;;;;;;;;;;;;5023587;28;19909;-31
2022/10/13 05:59:46;;;;;;;;;;;;;;;;;;5025862;28;20051;-31
2022/10/13 06:02:11;;;;;;;;;;;;;;;;;;5021644;28;19983;-31
2022/10/13 06:04:37;;;;;;;;;;;;;;;;;;5026520;28;19923;-31
2022/10/13 06:07:02;;;;;;;;;;;;;;;;;;5025909;28;19963;-31
2022/10/13 06:09:27;;;;;;;;;;;;;;;;;;5022524;28;20421;-31
2022/10/13 06:11:53;;;;;;;;;;;;;;;;;;5023117;28;20291;-31
2022/10/13 06:14:18;;;;;;;;;;;;;;;;;;5019148;28;19967;-31
2022/10/13 06:16:43;;;;;;;;;;;;;;;;;;5024797;28;19913;-31
2022/10/13 06:19:08;;;;;;;;;;;;;;;;;;5029151;28;20016;-31
2022/10/13 06:21:33;;;;;;;;;;;;;;;;;;5020993;28;19962;-31
2022/10/13 06:24:00;;;;;;;;;;;;;;;;;;5017740;28;19921;-31
2022/10/13 06:26:25;;;;;;;;;;;;;;;;;;5020686;28;19996;-31
2022/10/13 06:28:50;;;;;;;;;;;;;;;;;;5025938;28;20454;-31
2022/10/13 06:31:15;;;;;;;;;;;;;;;;;;5022331;28;19909;-31
2022/10/13 06:33:40;;;;;;;;;;;;;;;;;;5026185;28;19924;-32
2022/10/13 06:36:05;;;;;;;;;;;;;;;;;;5022269;28;19913;-31
2022/10/13 06:38:31;;;;;;;;;;;;;;;;;;5022650;28;19923;-31
2022/10/13 06:40:56;;;;;;;;;;;;;;;;;;5021678;28;20325;-31
2022/10/13 06:43:21;;;;;;;;;;;;;;;;;;5024160;28;19915;-32
2022/10/13 06:45:46;;;;;;;;;;;;;;;;;;5018573;28;20438;-32
2022/10/13 06:48:11;;;;;;;;;;;;;;;;;;5020476;28;19920;-32
2022/10/13 06:50:36;;;;;;;;;;;;;;;;;;5022176;28;20433;-31
2022/10/13 06:53:02;;;;;;;;;;;;;;;;;;5024195;28;19917;-32
2022/10/13 06:55:27;;;;;;;;;;;;;;;;;;5022541;28;19914;-32
2022/10/13 06:57:52;;;;;;;;;;;;;;;;;;5019085;28;20410;-32
2022/10/13 07:00:17;;;;;;;;;;;;;;;;;;5025316;28;19917;-32
2022/10/13 07:02:42;;;;;;;;;;;;;;;;;;5017800;28;19960;-31
2022/10/13 07:05:07;;;;;;;;;;;;;;;;;;5019738;28;19913;-31
2022/10/13 07:07:33;;;;;;;;;;;;;;;;;;5019180;28;19917;-31
2022/10/13 07:09:58;;;;;;;;;;;;;;;;;;5030059;28;19967;-32
2022/10/13 07:12:23;;;;;;;;;;;;;;;;;;5019490;28;20278;-32
2022/10/13 07:14:48;;;;;;;;;;;;;;;;;;5022802;28;19967;-32
2022/10/13 07:17:14;;;;;;;;;;;;;;;;;;5019168;28;20498;-32
2022/10/13 07:19:39;;;;;;;;;;;;;;;;;;5025787;28;19925;-32
2022/10/13 07:22:04;;;;;;;;;;;;;;;;;;5025800;28;20375;-32
2022/10/13 07:24:29;;;;;;;;;;;;;;;;;;5021235;28;19916;-32
2022/10/13 07:26:54;;;;;;;;;;;;;;;;;;5027997;28;19913;-32
2022/10/13 07:29:19;;;;;;;;;;;;;;;;;;5025600;28;20354;-32
2022/10/13 07:31:45;;;;;;;;;;;;;;;;;;5023160;28;19924;-32
2022/10/13 07:34:10;;;;;;;;;;;;;;;;;;5029957;28;20422;-32
2022/10/13 07:36:37;;;;;;;;;;;;;;;;;;5020405;28;19921;-32
2022/10/13 07:39:02;;;;;;;;;;;;;;;;;;5027989;28;19913;-32
2022/10/13 07:41:27;;;;;;;;;;;;;;;;;;5029345;28;19951;-32
2022/10/13 07:43:52;;;;;;;;;;;;;;;;;;5022118;28;19917;-32
2022/10/13 07:46:17;;;;;;;;;;;;;;;;;;5020559;28;20036;-32
2022/10/13 07:48:43;;;;;;;;;;;;;;;;;;5018988;28;19917;-31
2022/10/13 07:51:08;;;;;;;;;;;;;;;;;;5028486;28;19925;-32
2022/10/13 07:53:34;;;;;;;;;;;;;;;;;;5017585;28;19916;-32
2022/10/13 07:55:59;;;;;;;;;;;;;;;;;;5024383;28;19913;-32
2022/10/13 07:58:24;;;;;;;;;;;;;;;;;;5022772;28;20359;-32
2022/10/13 08:00:49;;;;;;;;;;;;;;;;;;5020745;28;19928;-31
2022/10/13 08:03:14;;;;;;;;;;;;;;;;;;5018924;28;19924;-32
2022/10/13 08:05:40;;;;;;;;;;;;;;;;;;5038321;28;19999;-32
2022/10/13 08:08:05;;;;;;;;;;;;;;;;;;5021403;28;19929;-32
2022/10/13 08:10:30;;;;;;;;;;;;;;;;;;5020269;28;20456;-32
2022/10/13 08:12:55;;;;;;;;;;;;;;;;;;5021440;28;19917;-32
2022/10/13 08:15:20;;;;;;;;;;;;;;;;;;5017538;28;20342;-32
2022/10/13 08:17:45;;;;;;;;;;;;;;;;;;5022532;28;19918;-32
2022/10/13 08:20:11;;;;;;;;;;;;;;;;;;5018883;28;20060;-32
2022/10/13 08:22:36;;;;;;;;;;;;;;;;;;5027244;28;19921;-32
2022/10/13 08:25:01;;;;;;;;;;;;;;;;;;5022367;28;19924;-32
2022/10/13 08:27:26;;;;;;;;;;;;;;;;;;5029176;28;19916;-32
2022/10/13 08:29:53;;;;;;;;;;;;;;;;;;5017278;28;19925;-32
2022/10/13 08:32:19;;;;;;;;;;;;;;;;;;5017988;28;19939;-32
2022/10/13 08:34:44;;;;;;;;;;;;;;;;;;5016397;28;19924;-32
2022/10/13 08:37:10;;;;;;;;;;;;;;;;;;5027923;28;20146;-32
2022/10/13 08:39:35;;;;;;;;;;;;;;;;;;5014467;28;19921;-32
2022/10/13 08:42:00;;;;;;;;;;;;;;;;;;5022542;28;19992;-32
2022/10/13 08:44:26;;;;;;;;;;;;;;;;;;5016628;28;19924;-32
2022/10/13 08:46:51;;;;;;;;;;;;;;;;;;5026378;28;20175;-32
2022/10/13 08:49:16;;;;;;;;;;;;;;;;;;5020747;28;19920;-32
2022/10/13 08:51:41;;;;;;;;;;;;;;;;;;5018270;28;19923;-32
2022/10/13 08:54:06;;;;;;;;;;;;;;;;;;5016014;28;20523;-32
2022/10/13 08:56:31;;;;;;;;;;;;;;;;;;5022694;28;19917;-32
2022/10/13 08:58:57;;;;;;;;;;;;;;;;;;5018503;28;19944;-32
2022/10/13 09:01:24;;;;;;;;;;;;;;;;;;5018612;28;19967;-33
2022/10/13 09:03:50;;;;;;;;;;;;;;;;;;5018465;28;19917;-32
2022/10/13 09:06:15;;;;;;;;;;;;;;;;;;5018298;28;19920;-32
2022/10/13 09:08:40;;;;;;;;;;;;;;;;;;5018538;28;19921;-33
2022/10/13 09:11:05;;;;;;;;;;;;;;;;;;5019007;28;20035;-32
2022/10/13 09:13:31;;;;;;;;;;;;;;;;;;5021061;28;20604;-32
2022/10/13 09:15:56;;;;;;;;;;;;;;;;;;5018536;28;19966;-33
2022/10/13 09:18:21;;;;;;;;;;;;;;;;;;5015171;28;19953;-33
2022/10/13 09:20:46;;;;;;;;;;;;;;;;;;5021283;28;19928;-33
2022/10/13 09:23:11;;;;;;;;;;;;;;;;;;5019500;28;20299;-33
2022/10/13 09:25:36;;;;;;;;;;;;;;;;;;5016733;28;20370;-33
2022/10/13 09:28:02;;;;;;;;;;;;;;;;;;5020887;28;19924;-32
2022/10/13 09:30:27;;;;;;;;;;;;;;;;;;5021295;28;20282;-33
2022/10/13 09:32:52;;;;;;;;;;;;;;;;;;5019113;28;19916;-33
2022/10/13 09:35:17;;;;;;;;;;;;;;;;;;5020798;28;19917;-32
2022/10/13 09:37:42;;;;;;;;;;;;;;;;;;5021050;28;20370;-33
2022/10/13 09:40:08;;;;;;;;;;;;;;;;;;5016131;28;19921;-33
2022/10/13 09:42:33;;;;;;;;;;;;;;;;;;5022163;28;19914;-32
2022/10/13 09:44:58;;;;;;;;;;;;;;;;;;5019797;28;20429;-32
2022/10/13 09:47:25;;;;;;;;;;;;;;;;;;5022839;28;19913;-32
2022/10/13 09:49:50;;;;;;;;;;;;;;;;;;5019105;28;19913;-33
2022/10/13 09:52:15;;;;;;;;;;;;;;;;;;5022982;28;19928;-32
2022/10/13 09:54:41;;;;;;;;;;;;;;;;;;5018028;28;19960;-32
2022/10/13 09:57:06;;;;;;;;;;;;;;;;;;5024065;28;20056;-32
2022/10/13 09:59:32;;;;;;;;;;;;;;;;;;5023083;28;19918;-33
2022/10/13 10:01:57;;;;;;;;;;;;;;;;;;5022470;28;19925;-33
2022/10/13 10:04:22;;;;;;;;;;;;;;;;;;5019540;28;19924;-32
2022/10/13 10:06:47;;;;;;;;;;;;;;;;;;5027089;28;19925;-32
2022/10/13 10:09:12;;;;;;;;;;;;;;;;;;5023265;28;19924;-33
2022/10/13 10:11:38;;;;;;;;;;;;;;;;;;5020568;28;20304;-33
2022/10/13 10:14:03;;;;;;;;;;;;;;;;;;5022714;28;20392;-32
2022/10/13 10:16:30;;;;;;;;;;;;;;;;;;5019896;28;19924;-33
2022/10/13 10:18:55;;;;;;;;;;;;;;;;;;5024749;28;20032;-33
2022/10/13 10:21:20;;;;;;;;;;;;;;;;;;5020604;28;20012;-33
2022/10/13 10:23:45;;;;;;;;;;;;;;;;;;5017971;28;20395;-33
2022/10/13 10:26:10;;;;;;;;;;;;;;;;;;5021808;28;19917;-33
2022/10/13 10:28:36;;;;;;;;;;;;;;;;;;5022910;28;20338;-33
2022/10/13 10:31:01;;;;;;;;;;;;;;;;;;5019264;28;20011;-33
2022/10/13 10:33:26;;;;;;;;;;;;;;;;;;5021444;28;20359;-33
2022/10/13 10:35:52;;;;;;;;;;;;;;;;;;5023418;28;19994;-33
2022/10/13 10:38:17;;;;;;;;;;;;;;;;;;5019876;28;20137;-33
2022/10/13 10:40:42;;;;;;;;;;;;;;;;;;5019059;28;20405;-33
2022/10/13 10:43:07;;;;;;;;;;;;;;;;;;5023877;28;19953;-33
2022/10/13 10:45:32;;;;;;;;;;;;;;;;;;5016357;28;19917;-33
2022/10/13 10:47:57;;;;;;;;;;;;;;;;;;5019821;28;20351;-33
2022/10/13 10:50:22;;;;;;;;;;;;;;;;;;5019101;28;20004;-33
2022/10/13 10:52:48;;;;;;;;;;;;;;;;;;5019474;28;19980;-33
2022/10/13 10:55:13;;;;;;;;;;;;;;;;;;5024063;28;19916;-33
2022/10/13 10:57:38;;;;;;;;;;;;;;;;;;5021512;28;20462;-33
2022/10/13 11:00:06;;;;;;;;;;;;;;;;;;5028703;28;19979;-33
2022/10/13 11:02:31;;;;;;;;;;;;;;;;;;5022868;28;19916;-33
2022/10/13 11:04:56;;;;;;;;;;;;;;;;;;5020488;28;19917;-33
2022/10/13 11:07:21;;;;;;;;;;;;;;;;;;5018841;28;20461;-33
2022/10/13 11:09:47;;;;;;;;;;;;;;;;;;5019663;28;20330;-33
2022/10/13 11:12:12;;;;;;;;;;;;;;;;;;5017922;28;19917;-33
2022/10/13 11:14:37;;;;;;;;;;;;;;;;;;5020891;28;19957;-33
2022/10/13 11:17:02;;;;;;;;;;;;;;;;;;5018733;28;19917;-33
2022/10/13 11:19:27;;;;;;;;;;;;;;;;;;5023288;28;20016;-33
2022/10/13 11:21:52;;;;;;;;;;;;;;;;;;5017954;28;20330;-33
2022/10/13 11:24:18;;;;;;;;;;;;;;;;;;5018300;28;19913;-33
2022/10/13 11:26:43;;;;;;;;;;;;;;;;;;5019726;28;20022;-33
2022/10/13 11:29:08;;;;;;;;;;;;;;;;;;5021882;28;19981;-33
2022/10/13 11:31:33;;;;;;;;;;;;;;;;;;5018287;28;19924;-33
2022/10/13 11:33:58;;;;;;;;;;;;;;;;;;5019785;28;19913;-33
2022/10/13 11:36:29;;;;;;;;;;;;;;;;;;5019433;28;19913;-33
2022/10/13 11:38:54;;;;;;;;;;;;;;;;;;5019642;28;19921;-33
2022/10/13 11:41:19;;;;;;;;;;;;;;;;;;5020656;28;20298;-33
2022/10/13 11:46:12;;;;;;;;;;;;;;;;;;5042726;28;19939;-34
2022/10/13 11:48:37;;;;;;;;;;;;;;;;;;5041355;28;19920;-34
2022/10/13 11:51:02;;;;;;;;;;;;;;;;;;5041395;28;19921;-34
2022/10/13 11:53:27;;;;;;;;;;;;;;;;;;5043397;28;19917;-34
2022/10/13 11:55:53;;;;;;;;;;;;;;;;;;5041962;28;19968;-34
2022/10/13 11:58:18;;;;;;;;;;;;;;;;;;5042589;28;20260;-34
2022/10/13 12:00:43;;;;;;;;;;;;;;;;;;5044504;28;19924;-33
2022/10/13 12:03:08;;;;;;;;;;;;;;;;;;5050545;28;19917;-34
2022/10/13 12:05:34;;;;;;;;;;;;;;;;;;5046253;28;20302;-33
2022/10/13 12:07:59;;;;;;;;;;;;;;;;;;5050272;28;20409;-34
2022/10/13 12:10:25;;;;;;;;;;;;;;;;;;5049435;28;19916;-34
2022/10/13 12:12:50;;;;;;;;;;;;;;;;;;5049135;28;20294;-33
2022/10/13 12:15:15;;;;;;;;;;;;;;;;;;5051142;28;19917;-34
2022/10/13 12:17:40;;;;;;;;;;;;;;;;;;5045338;28;20353;-34
2022/10/13 12:20:05;;;;;;;;;;;;;;;;;;5042258;28;19925;-34
2022/10/13 12:22:30;;;;;;;;;;;;;;;;;;5048683;28;19913;-34
2022/10/13 12:24:55;;;;;;;;;;;;;;;;;;5046355;28;19917;-34
2022/10/13 12:27:21;;;;;;;;;;;;;;;;;;5046451;28;19921;-34
2022/10/13 12:29:46;;;;;;;;;;;;;;;;;;5049766;28;19921;-33
2022/10/13 12:32:11;;;;;;;;;;;;;;;;;;5052200;28;19913;-34
2022/10/13 12:34:36;;;;;;;;;;;;;;;;;;5045020;28;20468;-34
2022/10/13 12:37:01;;;;;;;;;;;;;;;;;;5046575;28;20508;-34
2022/10/13 12:39:26;;;;;;;;;;;;;;;;;;5044398;28;19916;-33
2022/10/13 12:41:52;;;;;;;;;;;;;;;;;;5047783;28;19912;-33
2022/10/13 12:44:17;;;;;;;;;;;;;;;;;;5049991;28;19925;-33
2022/10/13 12:46:42;;;;;;;;;;;;;;;;;;5045324;28;19917;-34
2022/10/13 12:49:07;;;;;;;;;;;;;;;;;;5043729;28;20816;-33
2022/10/13 12:51:34;;;;;;;;;;;;;;;;;;5045269;28;20008;-34
2022/10/13 12:53:59;;;;;;;;;;;;;;;;;;5044317;28;19933;-33
2022/10/13 12:56:25;;;;;;;;;;;;;;;;;;5049108;28;19917;-34
2022/10/13 12:58:50;;;;;;;;;;;;;;;;;;5046294;28;20360;-34
2022/10/13 13:01:15;;;;;;;;;;;;;;;;;;5042558;28;20333;-33
2022/10/13 13:03:40;;;;;;;;;;;;;;;;;;5048230;28;19920;-33
2022/10/13 13:06:05;;;;;;;;;;;;;;;;;;5038854;28;19921;-33
2022/10/13 13:08:31;;;;;;;;;;;;;;;;;;5042688;28;19909;-33
2022/10/13 13:10:56;;;;;;;;;;;;;;;;;;5044648;28;19921;-33
2022/10/13 13:13:21;;;;;;;;;;;;;;;;;;5053606;28;19982;-33
2022/10/13 13:15:47;;;;;;;;;;;;;;;;;;5046363;28;19924;-34
2022/10/13 13:18:12;;;;;;;;;;;;;;;;;;5052994;28;19962;-33
2022/10/13 13:20:37;;;;;;;;;;;;;;;;;;5044963;28;20345;-33
2022/10/13 13:23:02;;;;;;;;;;;;;;;;;;5050998;28;19966;-34
2022/10/13 13:25:27;;;;;;;;;;;;;;;;;;5047103;28;19913;-33
2022/10/13 13:27:52;;;;;;;;;;;;;;;;;;5049820;28;19920;-33
2022/10/13 13:30:18;;;;;;;;;;;;;;;;;;5045949;28;20011;-33
2022/10/13 13:32:43;;;;;;;;;;;;;;;;;;5047896;28;19923;-33
2022/10/13 13:35:08;;;;;;;;;;;;;;;;;;5043750;28;19974;-33
2022/10/13 13:37:33;;;;;;;;;;;;;;;;;;5046243;28;19916;-33
2022/10/13 13:39:58;;;;;;;;;;;;;;;;;;5047685;28;19917;-33
2022/10/13 13:42:24;;;;;;;;;;;;;;;;;;5052344;28;19921;-34
2022/10/13 13:44:49;;;;;;;;;;;;;;;;;;5043727;28;19929;-33
2022/10/13 13:47:14;;;;;;;;;;;;;;;;;;5046841;28;19958;-33
2022/10/13 13:49:39;;;;;;;;;;;;;;;;;;5045473;28;20574;-33
2022/10/13 13:52:04;;;;;;;;;;;;;;;;;;5047856;28;20019;-33
2022/10/13 13:54:30;;;;;;;;;;;;;;;;;;5046719;28;20511;-34
2022/10/13 13:56:55;;;;;;;;;;;;;;;;;;5045354;28;19924;-33
2022/10/13 13:59:20;;;;;;;;;;;;;;;;;;5041425;28;19917;-33
2022/10/13 14:01:45;;;;;;;;;;;;;;;;;;5041603;28;19916;-33
2022/10/13 14:04:10;;;;;;;;;;;;;;;;;;5044824;28;19916;-33
2022/10/13 14:06:36;;;;;;;;;;;;;;;;;;5045672;28;19917;-33
2022/10/13 14:09:01;;;;;;;;;;;;;;;;;;5044956;28;20017;-33
2022/10/13 14:11:27;;;;;;;;;;;;;;;;;;5045908;28;19952;-33
2022/10/13 14:13:52;;;;;;;;;;;;;;;;;;5045953;28;19921;-33
2022/10/13 14:16:17;;;;;;;;;;;;;;;;;;5044198;28;20046;-34
2022/10/13 14:18:42;;;;;;;;;;;;;;;;;;5044671;28;19924;-33
2022/10/13 14:21:07;;;;;;;;;;;;;;;;;;5043200;28;19920;-33
2022/10/13 14:23:32;;;;;;;;;;;;;;;;;;5044941;28;19917;-33
2022/10/13 14:25:58;;;;;;;;;;;;;;;;;;5041825;28;19917;-34
2022/10/13 14:28:23;;;;;;;;;;;;;;;;;;5037597;28;19955;-34
2022/10/13 14:30:48;;;;;;;;;;;;;;;;;;5043482;28;19938;-34
2022/10/13 14:33:18;;;;;;;;;;;;;;;;;;5038823;28;20275;-34
2022/10/13 14:35:43;;;;;;;;;;;;;;;;;;5042772;28;19969;-34
2022/10/13 14:38:10;;;;;;;;;;;;;;;;;;5045712;28;19921;-34
2022/10/13 14:40:35;;;;;;;;;;;;;;;;;;5044258;28;19920;-34
2022/10/13 14:43:00;;;;;;;;;;;;;;;;;;5043434;28;20357;-34
2022/10/13 14:45:25;;;;;;;;;;;;;;;;;;5037973;28;19924;-34
2022/10/13 14:47:50;;;;;;;;;;;;;;;;;;5039500;28;19920;-34
2022/10/13 14:50:15;;;;;;;;;;;;;;;;;;5052039;28;19916;-34
2022/10/13 14:52:41;;;;;;;;;;;;;;;;;;5043854;28;19924;-34
2022/10/13 14:55:06;;;;;;;;;;;;;;;;;;5042751;28;19964;-34
2022/10/13 14:57:31;;;;;;;;;;;;;;;;;;5041975;28;19974;-34
2022/10/13 14:59:56;;;;;;;;;;;;;;;;;;5045145;28;20027;-34
2022/10/13 15:02:21;;;;;;;;;;;;;;;;;;5046890;28;19967;-34
2022/10/13 15:04:46;;;;;;;;;;;;;;;;;;5044971;28;19964;-34
2022/10/13 15:07:11;;;;;;;;;;;;;;;;;;5046144;28;19916;-34
2022/10/13 15:09:37;;;;;;;;;;;;;;;;;;5045243;28;19923;-34
2022/10/13 15:12:02;;;;;;;;;;;;;;;;;;5048986;28;20389;-34
2022/10/13 15:14:27;;;;;;;;;;;;;;;;;;5038556;28;20363;-34
2022/10/13 15:16:52;;;;;;;;;;;;;;;;;;5039549;28;20008;-34
2022/10/13 15:19:17;;;;;;;;;;;;;;;;;;5046986;28;20362;-34
2022/10/13 15:21:42;;;;;;;;;;;;;;;;;;5039289;28;20175;-34
2022/10/13 15:24:08;;;;;;;;;;;;;;;;;;5044546;28;19924;-34
2022/10/13 15:26:33;;;;;;;;;;;;;;;;;;5045392;28;20330;-34
2022/10/13 15:28:58;;;;;;;;;;;;;;;;;;5044412;28;19916;-34
2022/10/13 15:31:24;;;;;;;;;;;;;;;;;;5040684;28;20397;-34
2022/10/13 15:33:50;;;;;;;;;;;;;;;;;;5043533;28;20020;-34
2022/10/13 15:36:15;;;;;;;;;;;;;;;;;;5048067;28;19920;-34
2022/10/13 15:38:40;;;;;;;;;;;;;;;;;;5045666;28;19924;-34
2022/10/13 15:41:06;;;;;;;;;;;;;;;;;;5047868;28;19921;-34
2022/10/13 15:43:31;;;;;;;;;;;;;;;;;;5045993;28;19917;-34
2022/10/13 15:45:56;;;;;;;;;;;;;;;;;;5043255;28;20006;-34
2022/10/13 15:48:21;;;;;;;;;;;;;;;;;;5047430;28;19936;-34
2022/10/13 15:50:46;;;;;;;;;;;;;;;;;;5047288;28;19917;-34
2022/10/13 15:53:12;;;;;;;;;;;;;;;;;;5046171;28;19963;-34
2022/10/13 15:55:37;;;;;;;;;;;;;;;;;;5049680;28;20432;-34
2022/10/13 15:58:03;;;;;;;;;;;;;;;;;;5054899;28;19920;-34
2022/10/13 16:00:28;;;;;;;;;;;;;;;;;;5049686;28;20258;-34
2022/10/13 16:02:53;;;;;;;;;;;;;;;;;;5050049;28;20023;-34
2022/10/13 16:05:18;;;;;;;;;;;;;;;;;;5049655;28;19923;-34
2022/10/13 16:07:43;;;;;;;;;;;;;;;;;;5050322;28;19966;-34
2022/10/13 16:10:08;;;;;;;;;;;;;;;;;;5049782;28;20397;-34
2022/10/13 16:12:34;;;;;;;;;;;;;;;;;;5051241;28;20304;-34
2022/10/13 16:14:59;;;;;;;;;;;;;;;;;;5051352;28;20405;-34
2022/10/13 16:17:24;;;;;;;;;;;;;;;;;;5050962;28;19923;-33
2022/10/13 16:19:49;;;;;;;;;;;;;;;;;;5053427;28;19970;-34
2022/10/13 16:22:14;;;;;;;;;;;;;;;;;;5051038;28;20377;-34
2022/10/13 16:24:39;;;;;;;;;;;;;;;;;;5050730;28;19987;-34
2022/10/13 16:27:05;;;;;;;;;;;;;;;;;;5047436;28;19963;-34
2022/10/13 16:29:30;;;;;;;;;;;;;;;;;;5047736;28;19920;-34
2022/10/13 16:31:55;;;;;;;;;;;;;;;;;;5049122;28;19923;-34
2022/10/13 16:34:21;;;;;;;;;;;;;;;;;;5046308;28;19935;-34